Clinton Municipal Airport
Monday 1:56 PM
Weather Sunny
VFR
Temperature 74°
Dew Point 38°
Feels Like 74°
Relative Humidity 27
%
Visibility 10
mi
Pressure 1015.9
mb
Wind Direction ENE
Wind Speed 12
mph
Last Hour Precip 0.00
"
KCWI 151856Z AUTO 07010G19KT 10SM CLR 23/03 A3000 RMK AO2 SLP159 T02330033

Recent Observations

Time Present Weather Temp DP Feels RH% Vsby Pressure Ceiling Direction Speed Gust 1h Precip
1:56PM
VFR
74° 38° 74° 27
%
10
mi
1015.9
mb
None ENE 12
mph
22
mph
0.00"
KCWI 151856Z AUTO 07010G19KT 10SM CLR 23/03 A3000 RMK AO2 SLP159 T02330033
12:56PM
VFR
72° 40° 72° 31
%
10
mi
1015.9
mb
None E 14
mph
17
mph
0.00"
KCWI 151756Z AUTO 09012G15KT 10SM CLR 22/04 A3000 RMK AO2 SLP159 T02220044 10222 20083 58005
11:56AM
VFR
70° 40° 70° 34
%
10
mi
1016.3
mb
None NE 14
mph
22
mph
0.00"
KCWI 151656Z AUTO 05012G19KT 10SM CLR 21/04 A3001 RMK AO2 SLP164 T02110044
10:56AM
VFR
67° 44° 67° 43
%
10
mi
1016.6
mb
None ENE 12
mph
0.00"
KCWI 151556Z AUTO 06010KT 10SM CLR 19/07 A3002 RMK AO2 SLP167 T01940067
9:56AM
VFR
62° 44° 62° 52
%
10
mi
1016.3
mb
None ENE 12
mph
0.00"
KCWI 151456Z AUTO 07010KT 10SM CLR 17/07 A3001 RMK AO2 SLP166 T01670067 51015
8:56AM
VFR
59° 42° 59° 53
%
10
mi
1015.9
mb
None ENE 12
mph
0.00"
KCWI 151356Z AUTO 06010KT 10SM CLR 15/06 A3000 RMK AO2 SLP160 T01500056
7:56AM
VFR
54° 41° 54° 61
%
10
mi
1015.9
mb
None NE 9
mph
0.00"
KCWI 151256Z AUTO 04008KT 10SM CLR 12/05 A3000 RMK AO2 SLP159 T01220050
6:56AM
VFR
47° 37° 43° 68
%
10
mi
1014.6
mb
None N 9
mph
0.00"
KCWI 151156Z AUTO 01008KT 10SM CLR 08/03 A2996 RMK AO2 SLP149 T00830028 10128 20078 53019
5:56AM
VFR
47° 36° 43° 65
%
10
mi
1013.9
mb
None N 9
mph
0.00"
KCWI 151056Z AUTO 36008KT 10SM CLR 08/02 A2994 RMK AO2 SLP140 T00830022
4:56AM
VFR
49° 38° 44° 66
%
10
mi
1013.2
mb
None N 13
mph
0.00"
KCWI 150956Z AUTO 35011KT 10SM CLR 09/03 A2992 RMK AO2 SLP132 T00940033
3:56AM
VFR
50° 38° 50° 63
%
10
mi
1012.9
mb
None N 12
mph
0.00"
KCWI 150856Z AUTO 35010KT 10SM CLR 10/03 A2991 RMK AO2 SLP127 T01000033 53010
2:56AM
VFR
52° 39° 52° 61
%
10
mi
1012.2
mb
None N 12
mph
0.00"
KCWI 150756Z AUTO 35010KT 10SM CLR 11/04 A2989 RMK AO2 SLP120 T01110039
12:56AM
VFR
55° 41° 55° 59
%
10
mi
1011.9
mb
None N 10
mph
0.00"
KCWI 150556Z AUTO 35009KT 10SM CLR 13/05 A2988 RMK AO2 SLP116 T01280050 10261 20111 402890111 51019
11:56PM
VFR
54° 42° 54° 64
%
10
mi
1011.2
mb
None N 10
mph
0.00"
KCWI 150456Z AUTO 35009KT 10SM CLR 12/06 A2986 RMK AO2 SLP112 T01220056
10:56PM
VFR
59° 43° 59° 55
%
10
mi
1010.5
mb
None N 12
mph
0.00"
KCWI 150356Z AUTO 35010KT 10SM CLR 15/06 A2984 RMK AO2 SLP104 T01500061
9:56PM
VFR
60° 44° 60° 55
%
10
mi
1009.8
mb
None N 12
mph
0.00"
KCWI 150256Z AUTO 35010KT 10SM CLR 16/07 A2982 RMK AO2 SLP098 T01560067 53021
8:56PM
VFR
64° 44° 64° 48
%
10
mi
1008.8
mb
None NNW 10
mph
0.00"
KCWI 150156Z AUTO 34009KT 10SM CLR 18/07 A2979 RMK AO2 SLP088 T01780067
7:56PM
VFR
73° 44° 73° 35
%
10
mi
1008.1
mb
None NW 10
mph
0.00"
KCWI 150056Z AUTO 32009KT 10SM CLR 23/07 A2977 RMK AO2 SLP080 T02280067
6:56PM
VFR
78° 47° 78° 33
%
10
mi
1007.8
mb
None NNW 6
mph
0.00"
KCWI 142356Z AUTO 34005KT 10SM CLR 26/08 A2976 RMK AO2 SLP075 T02560083 10289 20256 53000
5:56PM
VFR
83° 43° 81° 24
%
10
mi
1007.8
mb
None WNW 13
mph
0.00"
KCWI 142256Z AUTO 29011KT 10SM CLR 28/06 A2976 RMK AO2 SLP076 T02830061
Click here to show this page without METARs/TAFs included